Terminal Aerodrome Forecast
Issued by NWS Bismarck, ND

Home | Current Version | Previous Version | Text Only | Print | Product List | Glossary On
Versions: 1 2 3 4 5 6 7 8 9 10 11 12 13 14 15 16 17 18 19 20 21 22
000
FTUS43 KBIS 012300
TAFBIS
TAF
KBIS 012320Z 0200/0224 29013KT P6SM BKN050
     FM020200 29007KT P6SM BKN040
     FM020600 27004KT P6SM SCT240
     FM021600 23008KT P6SM SCT110
     FM021900 29019G27KT P6SM VCSH BKN060=

USA.gov is the U.S. government's official web portal to all federal, state and local government web resources and services.